createdAt,value
2017-09-02T00:02:02.071Z,3.83
2017-09-02T00:04:29.566Z,3.90
2017-09-02T00:06:57.057Z,3.70
2017-09-02T00:09:24.570Z,3.97
2017-09-02T00:11:52.066Z,3.37
2017-09-02T00:14:19.577Z,3.63
2017-09-02T00:16:47.059Z,4.50
2017-09-02T00:19:14.576Z,4.07
2017-09-02T00:21:42.051Z,3.80
2017-09-02T00:24:09.559Z,4.63
2017-09-02T00:26:37.054Z,4.30
2017-09-02T00:29:04.538Z,4.70
2017-09-02T00:31:32.035Z,5.63
2017-09-02T00:33:59.510Z,3.77
2017-09-02T00:36:27.015Z,4.50
2017-09-02T00:38:54.514Z,3.77
2017-09-02T00:41:22.027Z,4.60
2017-09-02T00:43:49.509Z,3.83
2017-09-02T00:46:17.070Z,5.67
2017-09-02T00:48:44.547Z,5.07
2017-09-02T00:51:12.975Z,4.10
2017-09-02T00:53:40.471Z,4.63
2017-09-02T00:56:07.953Z,5.13
2017-09-02T00:58:35.448Z,7.73
2017-09-02T01:01:02.939Z,4.67
2017-09-02T01:03:30.430Z,4.27
2017-09-02T01:05:57.914Z,4.07
2017-09-02T01:08:25.434Z,6.50
2017-09-02T01:10:52.921Z,4.30
2017-09-02T01:13:21.379Z,4.27
2017-09-02T01:15:48.868Z,4.17
2017-09-02T01:18:16.371Z,5.17
2017-09-02T01:20:43.854Z,3.40
2017-09-02T01:23:11.375Z,4.13
2017-09-02T01:25:39.762Z,3.83
2017-09-02T01:28:07.299Z,3.97
2017-09-02T01:30:39.602Z,3.50
2017-09-02T01:33:07.106Z,4.10
2017-09-02T01:35:34.594Z,4.90
2017-09-02T01:38:02.103Z,4.13
2017-09-02T01:40:29.589Z,4.17
2017-09-02T01:42:57.102Z,5.80
2017-09-02T01:45:24.576Z,4.17
2017-09-02T01:47:53.086Z,5.73
2017-09-02T01:50:20.558Z,4.50
2017-09-02T01:52:48.055Z,4.60
2017-09-02T01:55:15.542Z,6.30
2017-09-02T01:57:43.043Z,4.70
2017-09-02T02:00:10.558Z,3.90
2017-09-02T02:02:38.040Z,4.87
2017-09-02T02:05:05.537Z,4.40
2017-09-02T02:07:33.016Z,4.63
2017-09-02T02:10:02.460Z,4.60
2017-09-02T02:12:29.950Z,5.37
2017-09-02T02:14:57.459Z,5.50
2017-09-02T02:17:24.950Z,6.37
2017-09-02T02:19:52.449Z,6.70
2017-09-02T02:22:19.938Z,8.60
2017-09-02T02:24:47.458Z,8.57
2017-09-02T02:27:14.941Z,5.97
2017-09-02T02:29:42.470Z,8.53
2017-09-02T02:32:09.954Z,7.03
2017-09-02T02:34:37.462Z,8.32
2017-09-02T02:37:04.951Z,7.75
2017-09-02T02:39:34.380Z,7.60
2017-09-02T02:42:01.891Z,7.07
2017-09-02T02:44:29.375Z,7.35
2017-09-02T02:46:56.865Z,7.40
2017-09-02T02:49:24.363Z,6.53
2017-09-02T02:51:54.840Z,8.93
2017-09-02T02:54:24.284Z,7.63
2017-09-02T02:56:51.778Z,7.30
2017-09-02T02:59:19.286Z,6.80
2017-09-02T03:01:46.799Z,6.97
2017-09-02T03:04:14.286Z,8.43
2017-09-02T03:06:41.763Z,5.80
2017-09-02T03:09:09.254Z,6.60
2017-09-02T03:11:36.743Z,7.63
2017-09-02T03:14:04.234Z,8.30
2017-09-02T03:16:31.736Z,8.20
2017-09-02T03:18:59.219Z,7.03
2017-09-02T03:21:26.724Z,7.40
2017-09-02T03:23:54.213Z,7.25
2017-09-02T03:26:21.735Z,7.25
2017-09-02T03:28:49.231Z,9.43
2017-09-02T03:31:18.734Z,9.80
2017-09-02T03:33:46.215Z,8.70
2017-09-02T03:36:13.719Z,9.27
2017-09-02T03:38:41.217Z,10.80
2017-09-02T03:41:08.693Z,9.93
2017-09-02T03:43:38.145Z,9.20
2017-09-02T03:46:05.642Z,10.55
2017-09-02T03:48:33.158Z,12.47
2017-09-02T03:51:00.653Z,10.70
2017-09-02T03:53:28.169Z,12.70
2017-09-02T03:55:55.670Z,13.20
2017-09-02T03:58:23.182Z,10.80
2017-09-02T04:00:50.680Z,9.50
2017-09-02T04:03:19.122Z,9.37
2017-09-02T04:05:46.610Z,8.73
2017-09-02T04:08:14.128Z,9.50
2017-09-02T04:10:41.618Z,8.70
2017-09-02T04:13:11.141Z,12.52
2017-09-02T04:15:38.635Z,12.63
2017-09-02T04:18:06.147Z,10.83
2017-09-02T04:20:33.623Z,9.40
2017-09-02T04:23:03.042Z,9.93
2017-09-02T04:25:30.550Z,9.77
2017-09-02T04:27:58.059Z,9.80
2017-09-02T04:30:25.549Z,10.07
2017-09-02T04:32:54.963Z,8.90
2017-09-02T04:35:22.445Z,9.53
2017-09-02T04:37:50.654Z,10.33
2017-09-02T04:40:18.132Z,8.27
2017-09-02T04:42:46.527Z,8.53
2017-09-02T04:45:14.030Z,8.60
2017-09-02T04:47:42.458Z,8.40
2017-09-02T04:50:09.978Z,10.20
2017-09-02T04:52:37.490Z,9.33
2017-09-02T04:55:05.007Z,11.80
2017-09-02T04:57:32.487Z,11.80
2017-09-02T04:59:59.971Z,12.10
2017-09-02T05:02:27.501Z,10.73
2017-09-02T05:04:54.998Z,12.57
2017-09-02T05:07:22.519Z,10.90
2017-09-02T05:09:50.029Z,10.97
2017-09-02T05:12:18.450Z,9.20
2017-09-02T05:14:45.986Z,9.30
2017-09-02T05:17:13.490Z,11.73
2017-09-02T05:19:41.946Z,9.83
2017-09-02T05:22:09.460Z,9.55
2017-09-02T05:24:36.990Z,9.87
2017-09-02T05:27:04.510Z,10.67
2017-09-02T05:29:32.011Z,11.57
2017-09-02T05:31:59.521Z,11.63
2017-09-02T05:34:27.011Z,13.57
2017-09-02T05:36:54.515Z,14.53
2017-09-02T05:39:22.002Z,14.77
2017-09-02T05:41:49.530Z,15.20
2017-09-02T05:44:17.018Z,13.80
2017-09-02T05:46:44.547Z,12.47
2017-09-02T05:49:12.051Z,10.53
2017-09-02T05:51:39.559Z,9.30
2017-09-02T05:54:07.062Z,9.00
2017-09-02T05:56:34.555Z,10.63
2017-09-02T05:59:02.062Z,11.27
2017-09-02T06:01:29.574Z,10.07
2017-09-02T06:03:57.062Z,11.47
2017-09-02T06:06:24.574Z,12.90
2017-09-02T06:08:52.943Z,13.37
2017-09-02T06:11:20.440Z,13.43
2017-09-02T06:13:47.954Z,14.50
2017-09-02T06:16:16.381Z,14.47
2017-09-02T06:18:43.894Z,14.53
2017-09-02T06:21:11.386Z,14.17
2017-09-02T06:23:38.886Z,14.17
2017-09-02T06:26:06.418Z,12.20
2017-09-02T06:28:33.938Z,11.43
2017-09-02T06:31:03.433Z,11.20
2017-09-02T06:33:31.855Z,10.50
2017-09-02T06:35:59.376Z,10.50
2017-09-02T06:38:26.883Z,11.80
2017-09-02T06:40:56.948Z,10.40
2017-09-02T06:43:25.263Z,10.97
2017-09-02T06:45:59.743Z,12.97
2017-09-02T06:48:27.228Z,11.13
2017-09-02T06:50:54.745Z,10.33
2017-09-02T06:53:24.255Z,10.50
2017-09-02T06:55:51.758Z,10.33
2017-09-02T06:58:19.249Z,9.40
2017-09-02T07:00:46.750Z,9.90
2017-09-02T07:03:14.257Z,10.30
2017-09-02T07:05:41.757Z,10.20
2017-09-02T07:08:10.254Z,10.63
2017-09-02T07:10:37.778Z,10.63
2017-09-02T07:13:05.275Z,9.93
2017-09-02T07:15:32.755Z,10.70
2017-09-02T07:18:00.233Z,11.90
2017-09-02T07:20:27.750Z,11.00
2017-09-02T07:22:56.175Z,10.83
2017-09-02T07:25:23.699Z,9.60
2017-09-02T07:27:51.267Z,9.70
2017-09-02T07:30:18.795Z,11.33
2017-09-02T07:32:47.111Z,11.17
2017-09-02T07:35:14.640Z,10.80
2017-09-02T07:37:45.500Z,9.63
2017-09-02T07:40:13.014Z,10.18
2017-09-02T07:42:40.507Z,10.53
2017-09-02T07:45:09.005Z,10.47
2017-09-02T07:47:36.558Z,9.87
2017-09-02T07:50:04.047Z,8.90
2017-09-02T07:52:31.578Z,9.23
2017-09-02T07:54:59.091Z,10.77
2017-09-02T07:57:27.539Z,10.10
2017-09-02T07:59:55.054Z,12.63
2017-09-02T08:02:22.538Z,10.90
2017-09-02T08:04:50.030Z,11.07
2017-09-02T08:07:17.530Z,10.60
2017-09-02T08:09:45.047Z,10.03
2017-09-02T08:12:12.561Z,10.80
2017-09-02T08:14:40.042Z,10.33
2017-09-02T08:17:07.582Z,8.90
2017-09-02T08:19:35.102Z,9.43
2017-09-02T08:22:02.591Z,9.97
2017-09-02T08:24:30.099Z,9.23
2017-09-02T08:26:57.602Z,9.00
2017-09-02T08:29:25.082Z,9.30
2017-09-02T08:31:52.590Z,8.83
2017-09-02T08:34:20.073Z,9.43
2017-09-02T08:36:48.598Z,11.23
2017-09-02T08:39:16.200Z,16.30
2017-09-02T08:41:43.715Z,9.33
2017-09-02T08:44:12.087Z,8.33
2017-09-02T08:46:39.586Z,7.17
2017-09-02T08:49:07.074Z,8.20
2017-09-02T08:51:34.586Z,8.30
2017-09-02T08:54:02.199Z,7.53
2017-09-02T08:56:29.694Z,8.03
2017-09-02T08:58:57.207Z,8.37
2017-09-02T09:01:24.722Z,7.47
2017-09-02T09:03:52.234Z,27.80
2017-09-02T09:06:19.722Z,10.13
2017-09-02T09:08:47.221Z,8.73
2017-09-02T09:11:14.712Z,8.93
2017-09-02T09:13:42.243Z,8.13
2017-09-02T09:16:09.746Z,8.23
2017-09-02T09:18:38.326Z,7.80
2017-09-02T09:21:05.819Z,9.83
2017-09-02T09:23:33.333Z,9.50
2017-09-02T09:26:01.755Z,7.93
2017-09-02T09:28:30.257Z,8.47
2017-09-02T09:30:57.766Z,7.50
2017-09-02T09:33:25.258Z,7.20
2017-09-02T09:35:52.771Z,7.93
2017-09-02T09:38:20.278Z,7.70
2017-09-02T09:40:47.751Z,7.67
2017-09-02T09:43:15.250Z,8.00
2017-09-02T09:45:42.787Z,10.33
2017-09-02T09:48:10.287Z,9.50
2017-09-02T09:50:37.770Z,8.27
2017-09-02T09:53:05.246Z,7.50
2017-09-02T09:55:32.758Z,8.37
2017-09-02T09:58:00.283Z,9.90
2017-09-02T10:00:27.772Z,8.57
2017-09-02T10:02:55.242Z,6.43
2017-09-02T10:05:22.739Z,8.23
2017-09-02T10:07:50.241Z,7.67
2017-09-02T10:10:17.800Z,8.30
2017-09-02T10:12:45.298Z,7.50
2017-09-02T10:15:14.807Z,8.10
2017-09-02T10:17:43.487Z,7.93
2017-09-02T10:20:11.174Z,11.03
2017-09-02T10:22:38.786Z,8.13
2017-09-02T10:25:06.307Z,10.67
2017-09-02T10:27:33.915Z,9.57
2017-09-02T10:30:01.464Z,7.93
2017-09-02T10:32:28.972Z,9.17
2017-09-02T10:34:56.455Z,8.17
2017-09-02T10:37:24.862Z,8.40
2017-09-02T10:39:52.353Z,8.17
2017-09-02T10:42:19.838Z,8.60
2017-09-02T10:44:47.358Z,8.70
2017-09-02T10:47:14.913Z,9.13
2017-09-02T10:49:42.422Z,8.40
2017-09-02T10:52:09.930Z,8.40
2017-09-02T10:54:37.407Z,8.43
2017-09-02T10:57:04.917Z,7.43
2017-09-02T10:59:33.363Z,7.50
2017-09-02T11:02:00.877Z,6.50
2017-09-02T11:04:28.358Z,5.13
2017-09-02T11:06:55.859Z,6.80
2017-09-02T11:09:24.294Z,8.10
2017-09-02T11:11:51.810Z,7.07
2017-09-02T11:14:19.325Z,6.20
2017-09-02T11:16:46.860Z,5.93
2017-09-02T11:19:14.456Z,6.63
2017-09-02T11:21:42.025Z,7.10
2017-09-02T11:24:09.611Z,4.70
2017-09-02T11:26:37.463Z,7.07
2017-09-02T11:29:04.951Z,4.30
2017-09-02T11:31:32.510Z,5.20
2017-09-02T11:34:00.119Z,5.13
2017-09-02T11:36:27.630Z,8.70
2017-09-02T11:38:55.114Z,10.47
2017-09-02T11:41:22.614Z,4.00
2017-09-02T11:43:50.130Z,4.00
2017-09-02T11:46:17.659Z,6.60
2017-09-02T11:48:45.187Z,4.93
2017-09-02T11:51:12.734Z,6.27
2017-09-02T11:53:40.355Z,4.87
2017-09-02T11:56:07.858Z,4.90
2017-09-02T11:58:35.384Z,4.47
2017-09-02T12:01:02.891Z,5.57
2017-09-02T12:03:30.498Z,4.87
2017-09-02T12:05:59.103Z,4.27
2017-09-02T12:08:26.662Z,3.53
2017-09-02T12:10:54.198Z,4.40
2017-09-02T12:13:21.710Z,12.97
2017-09-02T12:15:49.212Z,4.90
2017-09-02T12:18:16.704Z,7.40
2017-09-02T12:20:44.198Z,4.60
2017-09-02T12:23:11.697Z,4.73
2017-09-02T12:25:39.191Z,4.20
2017-09-02T12:28:08.659Z,7.50
2017-09-02T12:30:36.150Z,4.60
2017-09-02T12:33:03.651Z,5.03
2017-09-02T12:35:31.182Z,5.70
2017-09-02T12:37:58.661Z,4.03
2017-09-02T12:40:26.745Z,4.17
2017-09-02T12:42:55.082Z,3.40
2017-09-02T12:45:22.590Z,4.07
2017-09-02T12:47:50.075Z,6.50
2017-09-02T12:50:17.576Z,6.37
2017-09-02T12:52:46.149Z,7.03
2017-09-02T12:55:13.671Z,4.70
2017-09-02T12:57:41.181Z,6.73
2017-09-02T13:00:08.702Z,4.23
2017-09-02T13:02:36.196Z,7.67
2017-09-02T13:05:03.790Z,6.60
2017-09-02T13:07:31.325Z,6.50
2017-09-02T13:09:59.011Z,5.60
2017-09-02T13:12:27.559Z,4.00
2017-09-02T13:14:56.153Z,4.73
2017-09-02T13:17:23.759Z,5.83
2017-09-02T13:19:52.277Z,5.43
2017-09-02T13:22:19.837Z,5.90
2017-09-02T13:24:47.469Z,5.43
2017-09-02T13:27:15.190Z,8.20
2017-09-02T13:29:42.821Z,8.30
2017-09-02T13:32:10.412Z,5.50
2017-09-02T13:34:38.188Z,4.93
2017-09-02T13:37:07.075Z,6.30
2017-09-02T13:39:35.962Z,2.83
2017-09-02T13:42:04.574Z,4.30
2017-09-02T13:44:32.165Z,3.33
2017-09-02T13:46:59.749Z,2.20
2017-09-02T13:49:27.320Z,2.27
2017-09-02T13:51:54.920Z,3.83
2017-09-02T13:54:22.468Z,3.67
2017-09-02T13:56:50.057Z,4.73
2017-09-02T13:59:17.658Z,2.80
2017-09-02T14:01:45.266Z,3.53
2017-09-02T14:04:13.608Z,2.10
2017-09-02T14:06:41.190Z,2.90
2017-09-02T14:09:08.813Z,3.80
2017-09-02T14:11:36.451Z,1.80
2017-09-02T14:14:04.153Z,2.60
2017-09-02T14:16:31.763Z,1.80
2017-09-02T14:18:59.844Z,2.73
2017-09-02T14:21:27.481Z,2.60
2017-09-02T14:23:55.048Z,3.00
2017-09-02T14:26:22.585Z,2.37
2017-09-02T14:28:50.129Z,3.30
2017-09-02T14:31:17.696Z,2.60
2017-09-02T14:33:45.267Z,3.00
2017-09-02T14:36:12.787Z,2.50
2017-09-02T14:38:40.480Z,3.30
2017-09-02T14:41:08.035Z,4.37
2017-09-02T14:43:35.650Z,2.70
2017-09-02T14:46:03.299Z,2.47
2017-09-02T14:48:30.894Z,2.23
2017-09-02T14:50:59.267Z,2.90
2017-09-02T14:53:26.780Z,2.87
2017-09-02T14:55:55.244Z,3.87
2017-09-02T14:58:22.833Z,3.77
2017-09-02T15:00:50.369Z,8.77
2017-09-02T15:03:18.000Z,3.40
2017-09-02T15:05:45.637Z,3.57
2017-09-02T15:08:13.177Z,5.73
2017-09-02T15:10:40.737Z,4.10
2017-09-02T15:13:08.284Z,4.73
2017-09-02T15:15:35.836Z,5.73
2017-09-02T15:18:03.362Z,3.60
2017-09-02T15:20:30.912Z,4.70
2017-09-02T15:22:58.419Z,4.47
2017-09-02T15:25:25.913Z,4.47
2017-09-02T15:27:53.398Z,3.93
2017-09-02T15:30:20.911Z,4.30
2017-09-02T15:32:48.393Z,5.73
2017-09-02T15:35:15.922Z,4.60
2017-09-02T15:37:44.223Z,4.57
2017-09-02T15:40:11.852Z,4.47
2017-09-02T15:42:39.396Z,5.13
2017-09-02T15:45:06.906Z,5.00
2017-09-02T15:47:35.328Z,5.43
2017-09-02T15:50:02.854Z,7.80
2017-09-02T15:52:30.356Z,5.83
2017-09-02T15:54:57.869Z,5.87
2017-09-02T15:57:25.408Z,5.57
2017-09-02T15:59:53.515Z,4.33
2017-09-02T16:02:21.010Z,5.20
2017-09-02T16:04:48.494Z,4.70
2017-09-02T16:07:16.012Z,6.20
2017-09-02T16:09:43.501Z,5.40
2017-09-02T16:12:10.995Z,7.90
2017-09-02T16:14:40.487Z,5.33
2017-09-02T16:17:08.943Z,6.60
2017-09-02T16:19:36.509Z,6.10
2017-09-02T16:22:04.043Z,5.40
2017-09-02T16:24:31.555Z,6.13
2017-09-02T16:26:59.066Z,7.77
2017-09-02T16:29:26.566Z,7.03
2017-09-02T16:31:54.074Z,6.63
2017-09-02T16:34:22.215Z,7.77
2017-09-02T16:36:49.727Z,6.70
2017-09-02T16:39:17.208Z,6.20
2017-09-02T16:41:44.702Z,5.70
2017-09-02T16:44:13.095Z,5.67
2017-09-02T16:46:40.602Z,11.00
2017-09-02T16:49:08.315Z,8.70
2017-09-02T16:51:35.906Z,6.47
2017-09-02T16:54:03.434Z,6.30
2017-09-02T16:56:30.927Z,7.43
2017-09-02T16:58:59.374Z,6.63
2017-09-02T17:01:28.005Z,8.33
2017-09-02T17:03:55.494Z,7.67
2017-09-02T17:06:23.002Z,7.13
2017-09-02T17:08:51.426Z,6.50
2017-09-02T17:11:18.910Z,9.00
2017-09-02T17:13:46.472Z,9.43
2017-09-02T17:16:14.869Z,9.30
2017-09-02T17:18:42.379Z,10.83
2017-09-02T17:21:10.362Z,7.43
2017-09-02T17:23:38.866Z,7.13
2017-09-02T17:26:06.397Z,6.43
2017-09-02T17:28:33.908Z,7.60
2017-09-02T17:31:01.413Z,6.53
2017-09-02T17:33:28.898Z,8.07
2017-09-02T17:35:56.390Z,9.23
2017-09-02T17:38:25.930Z,9.43
2017-09-02T17:40:53.411Z,7.67
2017-09-02T17:43:21.117Z,7.90
2017-09-02T17:45:48.611Z,7.20
2017-09-02T17:48:16.095Z,6.60
2017-09-02T17:50:43.606Z,7.47
2017-09-02T17:53:11.122Z,6.50
2017-09-02T17:55:38.634Z,7.83
2017-09-02T17:58:06.134Z,7.90
2017-09-02T18:00:33.633Z,7.40
2017-09-02T18:03:01.229Z,8.17
2017-09-02T18:05:29.147Z,8.10
2017-09-02T18:07:56.659Z,10.10
2017-09-02T18:10:24.193Z,8.47
2017-09-02T18:12:51.679Z,8.70
2017-09-02T18:15:19.236Z,8.70
2017-09-02T18:17:46.772Z,8.40
2017-09-02T18:20:14.274Z,10.70
2017-09-02T18:22:42.883Z,8.27
2017-09-02T18:25:11.188Z,8.20
2017-09-02T18:27:38.671Z,9.77
2017-09-02T18:30:06.163Z,9.03
2017-09-02T18:32:33.672Z,10.50
2017-09-02T18:35:01.195Z,14.90
2017-09-02T18:37:28.690Z,9.67
2017-09-02T18:39:56.187Z,10.03
2017-09-02T18:42:25.627Z,9.93
2017-09-02T18:44:53.170Z,13.60
2017-09-02T18:47:20.666Z,13.70
2017-09-02T18:49:48.315Z,13.53
2017-09-02T18:52:16.707Z,13.80
2017-09-02T18:54:46.145Z,12.27
2017-09-02T18:57:13.660Z,11.67
2017-09-02T18:59:41.431Z,10.00
2017-09-02T19:02:08.979Z,12.77
2017-09-02T19:04:36.478Z,11.17
2017-09-02T19:07:04.006Z,10.07
2017-09-02T19:09:31.499Z,11.33
2017-09-02T19:11:59.051Z,11.90
2017-09-02T19:14:26.571Z,11.30
2017-09-02T19:16:54.088Z,16.30
2017-09-02T19:19:21.659Z,19.10
2017-09-02T19:21:51.227Z,24.67
2017-09-02T19:24:18.760Z,26.60
2017-09-02T19:26:46.267Z,23.70
2017-09-02T19:29:14.739Z,22.63
2017-09-02T19:31:43.316Z,21.20
2017-09-02T19:34:10.849Z,20.83
2017-09-02T19:36:38.339Z,21.57
2017-09-02T19:39:05.931Z,20.90
2017-09-02T19:41:33.446Z,22.20
2017-09-02T19:44:01.043Z,19.50
2017-09-02T19:46:28.558Z,19.17
2017-09-02T19:48:56.064Z,19.42
2017-09-02T19:51:24.501Z,19.23
2017-09-02T19:53:52.019Z,20.63
2017-09-02T19:56:19.541Z,16.43
2017-09-02T19:58:47.054Z,16.23
2017-09-02T20:01:14.575Z,15.77
2017-09-02T20:03:44.063Z,15.65
2017-09-02T20:06:11.564Z,15.75
2017-09-02T20:08:39.095Z,17.30
2017-09-02T20:11:06.609Z,16.55
2017-09-02T20:13:34.169Z,17.33
2017-09-02T20:16:01.731Z,16.90
2017-09-02T20:18:30.198Z,15.50
2017-09-02T20:20:57.747Z,12.07
2017-09-02T20:23:25.244Z,16.83
2017-09-02T20:25:52.795Z,28.55
2017-09-02T20:28:20.404Z,47.22
2017-09-02T20:30:47.943Z,44.67
2017-09-02T20:33:16.485Z,35.70
2017-09-02T20:35:43.987Z,27.50
2017-09-02T20:38:14.693Z,21.62
2017-09-02T20:40:42.227Z,18.27
2017-09-02T20:43:11.735Z,15.48
2017-09-02T20:45:39.298Z,12.55
2017-09-02T20:48:06.818Z,12.60
2017-09-02T20:50:34.314Z,13.13
2017-09-02T20:53:01.846Z,12.82
2017-09-02T20:55:29.349Z,13.32
2017-09-02T20:57:56.902Z,13.32
2017-09-02T21:00:24.421Z,12.55
2017-09-02T21:02:51.918Z,12.13
2017-09-02T21:05:20.295Z,12.65
2017-09-02T21:07:47.878Z,19.52
2017-09-02T21:10:15.417Z,13.27
2017-09-02T21:12:43.850Z,12.47
2017-09-02T21:15:11.367Z,12.90
2017-09-02T21:17:38.863Z,12.20
2017-09-02T21:20:07.547Z,15.60
2017-09-02T21:22:35.091Z,14.93
2017-09-02T21:25:02.639Z,13.30
2017-09-02T21:27:32.103Z,12.97
2017-09-02T21:29:59.657Z,11.70
2017-09-02T21:32:27.187Z,11.90
2017-09-02T21:34:55.375Z,14.00
2017-09-02T21:37:22.895Z,12.03
2017-09-02T21:39:50.386Z,12.15
2017-09-02T21:42:18.569Z,12.00
2017-09-02T21:44:46.130Z,12.73
2017-09-02T21:47:13.723Z,12.13
2017-09-02T21:49:41.285Z,14.53
2017-09-02T21:52:08.896Z,16.70
2017-09-02T21:54:36.507Z,15.23
2017-09-02T21:57:04.060Z,15.37
2017-09-02T21:59:31.657Z,14.75
2017-09-02T22:01:59.218Z,16.03
2017-09-02T22:04:26.778Z,20.60
2017-09-02T22:06:54.920Z,23.80
2017-09-02T22:09:23.187Z,24.15
2017-09-02T22:11:50.769Z,26.58
2017-09-02T22:14:18.396Z,29.30
2017-09-02T22:16:46.028Z,26.17
2017-09-02T22:19:13.669Z,23.45
2017-09-02T22:21:41.321Z,20.23
2017-09-02T22:24:08.872Z,21.45
2017-09-02T22:26:37.440Z,21.65
2017-09-02T22:29:06.029Z,19.23
2017-09-02T22:31:33.622Z,16.90
2017-09-02T22:34:01.228Z,14.43
2017-09-02T22:36:28.744Z,19.85
2017-09-02T22:38:56.274Z,17.33
2017-09-02T22:41:23.839Z,18.50
2017-09-02T22:43:53.342Z,17.60
2017-09-02T22:46:20.944Z,19.25
2017-09-02T22:48:48.509Z,20.42
2017-09-02T22:51:16.053Z,17.60
2017-09-02T22:53:43.607Z,18.37
2017-09-02T22:56:11.204Z,23.17
2017-09-02T22:58:39.043Z,23.90
2017-09-02T23:01:07.387Z,21.62
2017-09-02T23:03:34.946Z,17.77
2017-09-02T23:06:02.498Z,15.30
2017-09-02T23:08:30.023Z,18.65
2017-09-02T23:10:59.534Z,15.95
2017-09-02T23:13:27.147Z,18.33
2017-09-02T23:15:54.760Z,19.62
2017-09-02T23:18:22.340Z,18.30
2017-09-02T23:20:49.867Z,16.83
2017-09-02T23:23:17.448Z,16.62
2017-09-02T23:25:45.020Z,19.77
2017-09-02T23:28:12.536Z,21.35
2017-09-02T23:30:40.057Z,20.50
2017-09-02T23:33:07.539Z,19.83
2017-09-02T23:35:35.050Z,17.10
2017-09-02T23:38:02.551Z,15.15
2017-09-02T23:40:30.075Z,14.02
2017-09-02T23:42:57.591Z,12.13
2017-09-02T23:45:26.129Z,12.65
2017-09-02T23:47:53.642Z,13.48
2017-09-02T23:50:21.142Z,13.90
2017-09-02T23:52:48.653Z,14.15
2017-09-02T23:55:16.210Z,13.55
2017-09-02T23:57:45.679Z,13.10
